Stations météo

réclame
Mon MeteoGroup
Monte Settepani, Italie (16111): Température de l'air & dewpoint: 11.10.2017 03:00:00 - 17.10.2017 03:00:00 (CEST)Monte Settepani, Italie (16111): Vitesse du vent: 11.10.2017 03:00:00 - 17.10.2017 03:00:00 (CEST)Monte Settepani, Italie (16111): Direction du vent: 11.10.2017 03:00:00 - 17.10.2017 03:00:00 (CEST)Monte Settepani, Italie (16111): Quantités de précipitations: 11.10.2017 03:00:00 - 17.10.2017 03:00:00 (CEST)
Date & Time tt [°C] td [°C] ff [km/h] ff [knt] dd rr [mm]
17.10.2017 03:00:00 13,1 8,7 13 7 NW -
17.10.2017 02:00:00 13,3 9,7 13 7 WNW 0,0
17.10.2017 01:00:00 13,4 10,2 11 6 NW -
17.10.2017 00:00:00 13,7 10,5 13 7 NW -
16.10.2017 23:00:00 13,6 10,6 11 6 NNW -
16.10.2017 22:00:00 13,2 10,0 8 4 N -
16.10.2017 21:00:00 13,2 10,2 8 4 N -
16.10.2017 20:00:00 13,3 11,2 8 4 N 0,0
16.10.2017 19:00:00 14,3 12,1 4 2 N -
16.10.2017 18:00:00 15,7 12,0 0 0 N -
16.10.2017 17:00:00 17,4 13,4 0 0 N -
16.10.2017 16:00:00 19,1 14,1 8 4 SSW -
16.10.2017 15:00:00 18,6 13,4 11 6 S -
16.10.2017 14:00:00 19,2 14,2 8 4 S 0,0
16.10.2017 13:00:00 18,1 12,3 2 1 WNW -
16.10.2017 12:00:00 17,5 10,8 8 4 SW -
16.10.2017 11:00:00 17,2 11,9 4 2 SSW -
16.10.2017 10:00:00 16,1 9,2 0 0 N -
16.10.2017 09:00:00 13,8 6,8 8 4 NW -
16.10.2017 08:00:00 11,4 9,1 8 4 NNW 0,0
16.10.2017 07:00:00 12,1 10,0 4 2 N -
16.10.2017 06:00:00 12,0 9,2 9 5 N -
16.10.2017 05:00:00 12,8 10,1 4 2 N -
16.10.2017 04:00:00 12,9 9,7 5 3 N -
16.10.2017 03:00:00 12,3 10,2 9 5 N -
16.10.2017 02:00:00 12,6 10,5 9 5 N 0,0
16.10.2017 01:00:00 12,6 10,5 8 4 N -
16.10.2017 00:00:00 13,0 10,0 8 4 N -
15.10.2017 23:00:00 13,0 9,4 9 5 N -
15.10.2017 22:00:00 13,1 10,6 8 4 NNW -
15.10.2017 21:00:00 13,5 10,3 4 2 N -
15.10.2017 20:00:00 13,8 10,7 8 4 WNW 0,0
15.10.2017 19:00:00 13,8 3,2 2 1 S -
15.10.2017 18:00:00 15,0 7,5 9 5 SW -
15.10.2017 17:00:00 16,4 8,0 13 7 S -
15.10.2017 16:00:00 16,9 10,7 15 8 S -
15.10.2017 15:00:00 16,9 11,1 11 6 SSW -
15.10.2017 14:00:00 17,8 12,6 9 5 S 0,0
15.10.2017 13:00:00 18,1 11,1 9 5 S -
15.10.2017 12:00:00 17,8 10,4 5 3 E -
15.10.2017 11:00:00 16,3 9,2 2 1 NE -
15.10.2017 10:00:00 15,8 6,4 2 1 NNW -
15.10.2017 09:00:00 13,6 -1,7 2 1 NNE -
15.10.2017 08:00:00 12,7 0,0 5 3 N 0,0
15.10.2017 07:00:00 12,2 5,5 5 3 N -
15.10.2017 06:00:00 12,2 5,5 8 4 NNE -
15.10.2017 05:00:00 12,7 2,7 9 5 N -
15.10.2017 04:00:00 12,7 6,7 13 7 NW -
15.10.2017 03:00:00 12,7 6,4 11 6 N -
15.10.2017 02:00:00 12,8 8,2 9 5 NNW 0,0
15.10.2017 01:00:00 12,8 9,6 9 5 N -
15.10.2017 00:00:00 12,7 5,8 5 3 NNW -
14.10.2017 23:00:00 13,0 5,6 4 2 NNW -
14.10.2017 22:00:00 13,6 0,5 0 0 N -
14.10.2017 21:00:00 13,4 2,8 4 2 S -
14.10.2017 20:00:00 14,0 -1,3 9 5 S 0,0
14.10.2017 19:00:00 14,6 -1,6 9 5 SE -
14.10.2017 18:00:00 16,6 3,2 5 3 S -
14.10.2017 17:00:00 17,9 6,0 9 5 S -
14.10.2017 16:00:00 18,2 9,2 9 5 S -
14.10.2017 15:00:00 19,1 12,3 5 3 S -
14.10.2017 14:00:00 17,8 16,1 2 1 ESE 0,0
14.10.2017 13:00:00 15,2 13,0 4 2 NNE -
14.10.2017 12:00:00 14,8 12,1 4 2 N -
14.10.2017 11:00:00 15,6 9,9 4 2 N -
14.10.2017 10:00:00 14,4 9,4 8 4 N -
14.10.2017 09:00:00 12,9 8,7 9 5 NNW -
14.10.2017 08:00:00 13,3 6,1 11 6 NW 0,0
14.10.2017 07:00:00 12,6 6,4 8 4 WNW -
14.10.2017 06:00:00 11,6 9,7 0 0 N -
14.10.2017 05:00:00 11,6 9,3 5 3 N -
14.10.2017 04:00:00 12,3 9,5 9 5 N -
14.10.2017 03:00:00 13,8 8,8 8 4 WNW -
14.10.2017 02:00:00 13,5 11,4 4 2 WNW 0,0
14.10.2017 01:00:00 13,0 8,8 4 2 S -
14.10.2017 00:00:00 12,8 9,8 5 3 W -
13.10.2017 23:00:00 12,5 6,9 4 2 SW -
13.10.2017 22:00:00 12,5 8,1 5 3 SW -
13.10.2017 21:00:00 12,5 9,8 5 3 SW -
13.10.2017 20:00:00 12,2 11,4 5 3 SW 0,0
13.10.2017 19:00:00 12,8 11,7 8 4 NW -
13.10.2017 18:00:00 14,3 13,8 4 2 SW -
13.10.2017 17:00:00 13,8 13,7 5 3 SW -
13.10.2017 16:00:00 13,0 12,9 9 5 S -
13.10.2017 15:00:00 13,1 12,8 11 6 SSW -
13.10.2017 14:00:00 13,2 13,1 11 6 S 0,0
13.10.2017 13:00:00 12,5 12,5 13 7 S -
13.10.2017 12:00:00 11,0 11,0 11 6 SSE -
13.10.2017 11:00:00 10,1 10,1 13 7 S -
13.10.2017 10:00:00 9,4 9,4 18 10 S -
13.10.2017 09:00:00 11,0 9,6 9 5 SSE -
13.10.2017 08:00:00 11,1 9,5 5 3 SSE 0,0
13.10.2017 07:00:00 11,4 9,5 0 0 N -
13.10.2017 06:00:00 11,8 9,9 0 0 N -
13.10.2017 05:00:00 12,2 10,1 2 1 N -
13.10.2017 04:00:00 12,1 10,2 0 0 N -
13.10.2017 03:00:00 11,6 11,6 11 6 W -
13.10.2017 02:00:00 11,1 11,1 21 11 WNW 0,0
13.10.2017 01:00:00 11,7 5,3 5 3 SW -
13.10.2017 00:00:00 11,3 4,9 15 8 SSW -
12.10.2017 23:00:00 11,7 4,6 15 8 S -
12.10.2017 22:00:00 12,5 2,5 18 10 SSW -
12.10.2017 21:00:00 12,8 2,5 18 10 SSW -
12.10.2017 20:00:00 13,0 3,0 15 8 SSW 0,0
12.10.2017 19:00:00 13,4 4,5 16 9 SSW -
12.10.2017 18:00:00 15,2 12,5 5 3 S -
12.10.2017 17:00:00 16,5 14,4 9 5 SW -
12.10.2017 16:00:00 16,0 15,3 5 3 WSW -
12.10.2017 15:00:00 14,4 13,6 11 6 SSW -
12.10.2017 14:00:00 14,1 13,3 11 6 SW 0,0
12.10.2017 13:00:00 11,9 11,9 9 5 S -
12.10.2017 12:00:00 12,3 12,0 11 6 S -
12.10.2017 11:00:00 11,3 11,3 9 5 S -
12.10.2017 10:00:00 10,0 10,0 11 6 S -
12.10.2017 09:00:00 8,5 8,5 8 4 S -
12.10.2017 08:00:00 8,2 8,2 5 3 S 0,0
12.10.2017 07:00:00 8,1 8,1 11 6 S -
12.10.2017 06:00:00 8,1 8,1 8 4 S -
12.10.2017 05:00:00 8,2 8,2 8 4 SSE -
12.10.2017 04:00:00 8,3 8,3 2 1 S -
12.10.2017 03:00:00 8,5 8,2 4 2 S -
12.10.2017 02:00:00 9,0 8,7 8 4 WNW 0,0
12.10.2017 01:00:00 9,2 9,2 9 5 NW -
12.10.2017 00:00:00 9,3 9,3 8 4 WNW -
11.10.2017 23:00:00 9,3 9,3 9 5 WNW -
11.10.2017 22:00:00 8,6 8,6 4 2 WNW -
11.10.2017 21:00:00 9,1 9,1 4 2 SW -
11.10.2017 20:00:00 9,0 9,0 5 3 S 0,0
11.10.2017 19:00:00 8,8 8,8 5 3 S -
11.10.2017 18:00:00 8,5 8,5 4 2 SSE -
11.10.2017 17:00:00 8,8 8,8 9 5 S -
11.10.2017 16:00:00 8,8 8,8 8 4 S -
11.10.2017 15:00:00 9,3 9,3 9 5 S -
11.10.2017 14:00:00 9,3 9,3 5 3 SSW 0,0
11.10.2017 13:00:00 9,3 9,3 5 3 S -
11.10.2017 12:00:00 10,0 10,0 2 1 W -
11.10.2017 11:00:00 10,3 10,3 2 1 E -
11.10.2017 10:00:00 10,2 10,2 0 0 N -
11.10.2017 09:00:00 9,4 8,9 2 1 S -
11.10.2017 08:00:00 9,1 8,9 0 0 N 0,0
11.10.2017 07:00:00 8,7 8,4 0 0 N -
11.10.2017 06:00:00 8,9 8,4 4 2 N -
11.10.2017 05:00:00 9,5 9,0 2 1 NE -
11.10.2017 04:00:00 9,8 9,3 0 0 N -
11.10.2017 03:00:00 9,4 8,6 2 1 WNW -

tt = Température de l'air
td = dewpoint
ff = Vitesse du vent
dd = Direction du vent
rr = Quantités de précipitations

stations d'obs. à proximité